sensor_id;sensor_type;location;lat;lon;timestamp;P1;durP1;ratioP1;P2;durP2;ratioP2
79365;SDS011;68833;53.160;17.920;2023-11-19T00:00:36;25.90;;;14.80;;
79365;SDS011;68833;53.160;17.920;2023-11-19T00:03:22;28.20;;;15.70;;
79365;SDS011;68833;53.160;17.920;2023-11-19T00:05:48;23.80;;;14.50;;
79365;SDS011;68833;53.160;17.920;2023-11-19T00:08:15;30.00;;;17.10;;
79365;SDS011;68833;53.160;17.920;2023-11-19T00:10:41;25.80;;;16.20;;
79365;SDS011;68833;53.160;17.920;2023-11-19T00:13:07;25.50;;;15.60;;
79365;SDS011;68833;53.160;17.920;2023-11-19T00:15:36;25.20;;;16.60;;
79365;SDS011;68833;53.160;17.920;2023-11-19T00:18:02;25.80;;;15.00;;
79365;SDS011;68833;53.160;17.920;2023-11-19T00:20:31;26.30;;;15.00;;
79365;SDS011;68833;53.160;17.920;2023-11-19T00:22:57;29.40;;;16.50;;
79365;SDS011;68833;53.160;17.920;2023-11-19T00:25:25;25.40;;;16.10;;
79365;SDS011;68833;53.160;17.920;2023-11-19T00:27:51;30.20;;;18.80;;
79365;SDS011;68833;53.160;17.920;2023-11-19T00:30:19;27.90;;;17.20;;
79365;SDS011;68833;53.160;17.920;2023-11-19T00:32:45;26.80;;;16.10;;
79365;SDS011;68833;53.160;17.920;2023-11-19T00:35:11;28.40;;;16.90;;
79365;SDS011;68833;53.160;17.920;2023-11-19T00:37:40;26.70;;;16.20;;
79365;SDS011;68833;53.160;17.920;2023-11-19T00:40:08;28.70;;;16.10;;
79365;SDS011;68833;53.160;17.920;2023-11-19T00:42:36;29.10;;;16.30;;
79365;SDS011;68833;53.160;17.920;2023-11-19T00:45:04;31.40;;;17.40;;
79365;SDS011;68833;53.160;17.920;2023-11-19T00:47:35;33.90;;;18.20;;
79365;SDS011;68833;53.160;17.920;2023-11-19T00:50:02;34.90;;;18.40;;
79365;SDS011;68833;53.160;17.920;2023-11-19T00:52:29;32.10;;;17.50;;
79365;SDS011;68833;53.160;17.920;2023-11-19T00:54:55;34.60;;;20.30;;
79365;SDS011;68833;53.160;17.920;2023-11-19T00:57:22;30.50;;;18.10;;
79365;SDS011;68833;53.160;17.920;2023-11-19T00:59:50;32.00;;;17.70;;
79365;SDS011;68833;53.160;17.920;2023-11-19T01:02:16;31.30;;;17.20;;
79365;SDS011;68833;53.160;17.920;2023-11-19T01:04:42;31.90;;;17.40;;
79365;SDS011;68833;53.160;17.920;2023-11-19T01:07:08;31.20;;;18.30;;
79365;SDS011;68833;53.160;17.920;2023-11-19T01:09:38;31.40;;;17.90;;
79365;SDS011;68833;53.160;17.920;2023-11-19T01:12:05;27.00;;;15.30;;
79365;SDS011;68833;53.160;17.920;2023-11-19T01:14:31;29.70;;;16.00;;
79365;SDS011;68833;53.160;17.920;2023-11-19T01:16:57;29.50;;;15.50;;
79365;SDS011;68833;53.160;17.920;2023-11-19T01:19:23;28.80;;;16.80;;
79365;SDS011;68833;53.160;17.920;2023-11-19T01:21:50;30.90;;;15.80;;
79365;SDS011;68833;53.160;17.920;2023-11-19T01:24:17;28.50;;;15.40;;
79365;SDS011;68833;53.160;17.920;2023-11-19T01:26:43;31.20;;;18.70;;
79365;SDS011;68833;53.160;17.920;2023-11-19T01:29:13;29.90;;;17.50;;
79365;SDS011;68833;53.160;17.920;2023-11-19T01:31:41;28.30;;;16.00;;
79365;SDS011;68833;53.160;17.920;2023-11-19T01:34:12;28.70;;;16.70;;
79365;SDS011;68833;53.160;17.920;2023-11-19T01:36:38;32.30;;;17.10;;
79365;SDS011;68833;53.160;17.920;2023-11-19T01:39:05;28.00;;;17.80;;
79365;SDS011;68833;53.160;17.920;2023-11-19T01:41:35;32.50;;;18.40;;
79365;SDS011;68833;53.160;17.920;2023-11-19T01:44:02;28.90;;;16.70;;
79365;SDS011;68833;53.160;17.920;2023-11-19T01:46:29;33.40;;;20.10;;
79365;SDS011;68833;53.160;17.920;2023-11-19T01:48:55;35.60;;;20.20;;
79365;SDS011;68833;53.160;17.920;2023-11-19T01:51:22;29.60;;;17.10;;
79365;SDS011;68833;53.160;17.920;2023-11-19T01:53:48;30.90;;;18.70;;
79365;SDS011;68833;53.160;17.920;2023-11-19T01:56:15;35.00;;;18.10;;
79365;SDS011;68833;53.160;17.920;2023-11-19T01:58:43;29.90;;;17.60;;
79365;SDS011;68833;53.160;17.920;2023-11-19T02:01:11;32.10;;;18.40;;
79365;SDS011;68833;53.160;17.920;2023-11-19T02:03:39;31.00;;;16.80;;
79365;SDS011;68833;53.160;17.920;2023-11-19T02:06:05;34.00;;;20.00;;
79365;SDS011;68833;53.160;17.920;2023-11-19T02:08:33;34.00;;;19.90;;
79365;SDS011;68833;53.160;17.920;2023-11-19T02:11:01;37.50;;;19.40;;
79365;SDS011;68833;53.160;17.920;2023-11-19T02:13:27;31.50;;;17.80;;
79365;SDS011;68833;53.160;17.920;2023-11-19T02:15:57;28.90;;;17.60;;
79365;SDS011;68833;53.160;17.920;2023-11-19T02:18:24;33.20;;;18.90;;
79365;SDS011;68833;53.160;17.920;2023-11-19T02:20:54;31.90;;;17.50;;
79365;SDS011;68833;53.160;17.920;2023-11-19T02:23:21;35.40;;;20.50;;
79365;SDS011;68833;53.160;17.920;2023-11-19T02:28:35;32.40;;;18.50;;
79365;SDS011;68833;53.160;17.920;2023-11-19T02:31:02;37.20;;;20.30;;
79365;SDS011;68833;53.160;17.920;2023-11-19T02:33:30;34.40;;;17.90;;
79365;SDS011;68833;53.160;17.920;2023-11-19T02:35:57;32.70;;;18.40;;
79365;SDS011;68833;53.160;17.920;2023-11-19T02:38:23;27.90;;;15.90;;
79365;SDS011;68833;53.160;17.920;2023-11-19T02:40:49;33.70;;;19.70;;
79365;SDS011;68833;53.160;17.920;2023-11-19T02:43:15;33.90;;;19.50;;
79365;SDS011;68833;53.160;17.920;2023-11-19T02:45:42;33.00;;;18.10;;
79365;SDS011;68833;53.160;17.920;2023-11-19T02:48:11;30.20;;;18.40;;
79365;SDS011;68833;53.160;17.920;2023-11-19T02:50:37;36.20;;;20.00;;
79365;SDS011;68833;53.160;17.920;2023-11-19T02:53:04;33.30;;;18.40;;
79365;SDS011;68833;53.160;17.920;2023-11-19T02:55:30;28.40;;;17.40;;
79365;SDS011;68833;53.160;17.920;2023-11-19T02:58:02;28.70;;;17.10;;
79365;SDS011;68833;53.160;17.920;2023-11-19T03:00:34;34.60;;;20.60;;
79365;SDS011;68833;53.160;17.920;2023-11-19T03:03:03;37.10;;;20.60;;
79365;SDS011;68833;53.160;17.920;2023-11-19T03:05:46;31.60;;;16.90;;
79365;SDS011;68833;53.160;17.920;2023-11-19T03:08:13;35.20;;;18.50;;
79365;SDS011;68833;53.160;17.920;2023-11-19T03:10:41;31.90;;;18.00;;
79365;SDS011;68833;53.160;17.920;2023-11-19T03:13:10;36.20;;;19.30;;
79365;SDS011;68833;53.160;17.920;2023-11-19T03:15:38;35.30;;;18.50;;
79365;SDS011;68833;53.160;17.920;2023-11-19T03:18:05;38.80;;;22.20;;
79365;SDS011;68833;53.160;17.920;2023-11-19T03:20:31;34.10;;;19.70;;
79365;SDS011;68833;53.160;17.920;2023-11-19T03:22:57;36.90;;;21.20;;
79365;SDS011;68833;53.160;17.920;2023-11-19T03:25:27;34.30;;;20.80;;
79365;SDS011;68833;53.160;17.920;2023-11-19T03:27:59;37.00;;;19.80;;
79365;SDS011;68833;53.160;17.920;2023-11-19T03:30:29;31.70;;;19.60;;
79365;SDS011;68833;53.160;17.920;2023-11-19T03:32:56;33.70;;;19.30;;
79365;SDS011;68833;53.160;17.920;2023-11-19T03:35:23;33.00;;;18.90;;
79365;SDS011;68833;53.160;17.920;2023-11-19T03:37:50;32.40;;;19.60;;
79365;SDS011;68833;53.160;17.920;2023-11-19T03:40:17;36.70;;;21.50;;
79365;SDS011;68833;53.160;17.920;2023-11-19T03:42:45;37.30;;;19.40;;
79365;SDS011;68833;53.160;17.920;2023-11-19T03:45:12;31.30;;;17.30;;
79365;SDS011;68833;53.160;17.920;2023-11-19T03:47:39;35.40;;;19.70;;
79365;SDS011;68833;53.160;17.920;2023-11-19T03:50:05;30.90;;;19.50;;
79365;SDS011;68833;53.160;17.920;2023-11-19T03:52:34;39.40;;;22.00;;
79365;SDS011;68833;53.160;17.920;2023-11-19T03:55:01;43.20;;;23.90;;
79365;SDS011;68833;53.160;17.920;2023-11-19T03:57:29;39.40;;;21.40;;
79365;SDS011;68833;53.160;17.920;2023-11-19T03:59:55;38.70;;;21.50;;
79365;SDS011;68833;53.160;17.920;2023-11-19T04:02:22;46.40;;;23.60;;
79365;SDS011;68833;53.160;17.920;2023-11-19T04:04:48;32.00;;;18.70;;
79365;SDS011;68833;53.160;17.920;2023-11-19T04:07:14;31.00;;;17.70;;
79365;SDS011;68833;53.160;17.920;2023-11-19T04:09:41;37.80;;;19.10;;
79365;SDS011;68833;53.160;17.920;2023-11-19T04:12:07;30.20;;;16.40;;
79365;SDS011;68833;53.160;17.920;2023-11-19T04:14:34;31.50;;;17.00;;
79365;SDS011;68833;53.160;17.920;2023-11-19T04:17:00;37.10;;;19.90;;
79365;SDS011;68833;53.160;17.920;2023-11-19T04:19:26;31.20;;;18.80;;
79365;SDS011;68833;53.160;17.920;2023-11-19T04:21:52;30.60;;;17.20;;
79365;SDS011;68833;53.160;17.920;2023-11-19T04:24:18;37.20;;;18.60;;
79365;SDS011;68833;53.160;17.920;2023-11-19T04:26:45;36.60;;;18.90;;
79365;SDS011;68833;53.160;17.920;2023-11-19T04:29:12;32.60;;;17.10;;
79365;SDS011;68833;53.160;17.920;2023-11-19T04:31:41;31.50;;;15.80;;
79365;SDS011;68833;53.160;17.920;2023-11-19T04:34:07;24.60;;;14.80;;
79365;SDS011;68833;53.160;17.920;2023-11-19T04:36:34;43.20;;;23.40;;
79365;SDS011;68833;53.160;17.920;2023-11-19T04:39:00;33.70;;;18.40;;
79365;SDS011;68833;53.160;17.920;2023-11-19T04:41:27;26.20;;;15.00;;
79365;SDS011;68833;53.160;17.920;2023-11-19T04:43:54;30.80;;;16.90;;
79365;SDS011;68833;53.160;17.920;2023-11-19T04:46:24;27.30;;;15.40;;
79365;SDS011;68833;53.160;17.920;2023-11-19T04:48:50;29.50;;;15.40;;
79365;SDS011;68833;53.160;17.920;2023-11-19T04:51:16;26.20;;;15.90;;
79365;SDS011;68833;53.160;17.920;2023-11-19T04:53:42;24.50;;;14.90;;
79365;SDS011;68833;53.160;17.920;2023-11-19T04:56:09;29.10;;;17.40;;
79365;SDS011;68833;53.160;17.920;2023-11-19T05:01:05;26.40;;;14.70;;
79365;SDS011;68833;53.160;17.920;2023-11-19T05:03:31;28.40;;;15.40;;
79365;SDS011;68833;53.160;17.920;2023-11-19T05:05:58;25.90;;;14.70;;
79365;SDS011;68833;53.160;17.920;2023-11-19T05:08:25;30.60;;;16.00;;
79365;SDS011;68833;53.160;17.920;2023-11-19T05:10:51;27.00;;;15.20;;
79365;SDS011;68833;53.160;17.920;2023-11-19T05:13:17;25.20;;;13.60;;
79365;SDS011;68833;53.160;17.920;2023-11-19T05:15:45;18.80;;;11.40;;
79365;SDS011;68833;53.160;17.920;2023-11-19T05:18:11;24.90;;;13.30;;
79365;SDS011;68833;53.160;17.920;2023-11-19T05:20:37;33.70;;;18.20;;
79365;SDS011;68833;53.160;17.920;2023-11-19T05:23:03;30.80;;;17.30;;
79365;SDS011;68833;53.160;17.920;2023-11-19T05:25:29;27.70;;;16.50;;
79365;SDS011;68833;53.160;17.920;2023-11-19T05:27:56;25.10;;;14.40;;
79365;SDS011;68833;53.160;17.920;2023-11-19T05:30:22;22.00;;;13.60;;
79365;SDS011;68833;53.160;17.920;2023-11-19T05:32:49;23.70;;;13.70;;
79365;SDS011;68833;53.160;17.920;2023-11-19T05:35:15;25.10;;;14.60;;
79365;SDS011;68833;53.160;17.920;2023-11-19T05:37:42;26.80;;;15.20;;
79365;SDS011;68833;53.160;17.920;2023-11-19T05:40:08;29.70;;;15.30;;
79365;SDS011;68833;53.160;17.920;2023-11-19T05:42:40;31.70;;;18.20;;
79365;SDS011;68833;53.160;17.920;2023-11-19T05:45:07;29.60;;;17.00;;
79365;SDS011;68833;53.160;17.920;2023-11-19T05:47:35;28.80;;;15.60;;
79365;SDS011;68833;53.160;17.920;2023-11-19T05:50:01;24.70;;;14.60;;
79365;SDS011;68833;53.160;17.920;2023-11-19T05:52:28;26.80;;;15.40;;
79365;SDS011;68833;53.160;17.920;2023-11-19T05:55:00;23.90;;;12.60;;
79365;SDS011;68833;53.160;17.920;2023-11-19T05:57:30;22.20;;;12.50;;
79365;SDS011;68833;53.160;17.920;2023-11-19T05:59:56;20.80;;;12.50;;
79365;SDS011;68833;53.160;17.920;2023-11-19T06:02:22;22.80;;;13.10;;
79365;SDS011;68833;53.160;17.920;2023-11-19T06:04:49;26.50;;;16.00;;
79365;SDS011;68833;53.160;17.920;2023-11-19T06:07:15;28.60;;;15.90;;
79365;SDS011;68833;53.160;17.920;2023-11-19T06:09:41;23.30;;;14.50;;
79365;SDS011;68833;53.160;17.920;2023-11-19T06:12:08;23.90;;;13.40;;
79365;SDS011;68833;53.160;17.920;2023-11-19T06:14:34;24.80;;;14.30;;
79365;SDS011;68833;53.160;17.920;2023-11-19T06:17:00;50.70;;;25.60;;
79365;SDS011;68833;53.160;17.920;2023-11-19T06:19:26;62.90;;;28.80;;
79365;SDS011;68833;53.160;17.920;2023-11-19T06:21:53;49.60;;;24.10;;
79365;SDS011;68833;53.160;17.920;2023-11-19T06:24:19;68.70;;;36.60;;
79365;SDS011;68833;53.160;17.920;2023-11-19T06:26:45;39.80;;;24.40;;
79365;SDS011;68833;53.160;17.920;2023-11-19T06:29:11;33.40;;;19.50;;
79365;SDS011;68833;53.160;17.920;2023-11-19T06:31:40;29.40;;;17.00;;
79365;SDS011;68833;53.160;17.920;2023-11-19T06:34:07;25.00;;;14.20;;
79365;SDS011;68833;53.160;17.920;2023-11-19T06:36:33;24.30;;;14.90;;
79365;SDS011;68833;53.160;17.920;2023-11-19T06:38:59;21.10;;;11.80;;
79365;SDS011;68833;53.160;17.920;2023-11-19T06:41:26;28.60;;;14.30;;
79365;SDS011;68833;53.160;17.920;2023-11-19T06:43:54;23.30;;;14.40;;
79365;SDS011;68833;53.160;17.920;2023-11-19T06:46:21;20.80;;;11.50;;
79365;SDS011;68833;53.160;17.920;2023-11-19T06:48:47;27.90;;;15.30;;
79365;SDS011;68833;53.160;17.920;2023-11-19T06:51:13;25.70;;;15.30;;
79365;SDS011;68833;53.160;17.920;2023-11-19T06:53:42;23.20;;;13.70;;
79365;SDS011;68833;53.160;17.920;2023-11-19T06:56:23;27.60;;;15.00;;
79365;SDS011;68833;53.160;17.920;2023-11-19T06:58:50;24.10;;;13.70;;
79365;SDS011;68833;53.160;17.920;2023-11-19T07:01:17;20.10;;;12.40;;
79365;SDS011;68833;53.160;17.920;2023-11-19T07:03:44;32.60;;;18.90;;
79365;SDS011;68833;53.160;17.920;2023-11-19T07:08:43;28.60;;;16.20;;
79365;SDS011;68833;53.160;17.920;2023-11-19T07:11:13;37.40;;;22.30;;
79365;SDS011;68833;53.160;17.920;2023-11-19T07:13:41;33.50;;;18.60;;
79365;SDS011;68833;53.160;17.920;2023-11-19T07:16:08;38.40;;;21.00;;
79365;SDS011;68833;53.160;17.920;2023-11-19T07:18:37;99.60;;;50.20;;
79365;SDS011;68833;53.160;17.920;2023-11-19T07:21:04;61.30;;;32.70;;
79365;SDS011;68833;53.160;17.920;2023-11-19T07:23:30;105.20;;;51.90;;
79365;SDS011;68833;53.160;17.920;2023-11-19T07:25:57;50.90;;;27.10;;
79365;SDS011;68833;53.160;17.920;2023-11-19T07:28:23;48.60;;;22.40;;
79365;SDS011;68833;53.160;17.920;2023-11-19T07:30:49;221.10;;;94.10;;
79365;SDS011;68833;53.160;17.920;2023-11-19T07:33:15;276.10;;;119.70;;
79365;SDS011;68833;53.160;17.920;2023-11-19T07:35:43;234.40;;;98.40;;
79365;SDS011;68833;53.160;17.920;2023-11-19T07:38:10;149.00;;;72.70;;
79365;SDS011;68833;53.160;17.920;2023-11-19T07:40:36;118.40;;;57.00;;
79365;SDS011;68833;53.160;17.920;2023-11-19T07:43:02;145.30;;;68.70;;
79365;SDS011;68833;53.160;17.920;2023-11-19T07:45:28;37.50;;;21.30;;
79365;SDS011;68833;53.160;17.920;2023-11-19T07:47:55;39.60;;;20.60;;
79365;SDS011;68833;53.160;17.920;2023-11-19T07:50:21;38.70;;;23.00;;
79365;SDS011;68833;53.160;17.920;2023-11-19T07:52:47;27.90;;;17.00;;
79365;SDS011;68833;53.160;17.920;2023-11-19T07:55:15;22.90;;;13.70;;
79365;SDS011;68833;53.160;17.920;2023-11-19T07:57:41;20.90;;;12.80;;
79365;SDS011;68833;53.160;17.920;2023-11-19T08:00:07;17.60;;;10.80;;
79365;SDS011;68833;53.160;17.920;2023-11-19T08:02:40;21.40;;;11.90;;
79365;SDS011;68833;53.160;17.920;2023-11-19T08:05:07;16.50;;;9.50;;
79365;SDS011;68833;53.160;17.920;2023-11-19T08:07:33;30.60;;;17.10;;
79365;SDS011;68833;53.160;17.920;2023-11-19T08:09:59;59.30;;;25.60;;
79365;SDS011;68833;53.160;17.920;2023-11-19T08:12:26;106.70;;;40.60;;
79365;SDS011;68833;53.160;17.920;2023-11-19T08:14:52;73.20;;;38.50;;
79365;SDS011;68833;53.160;17.920;2023-11-19T08:17:18;34.70;;;19.50;;
79365;SDS011;68833;53.160;17.920;2023-11-19T08:19:44;27.90;;;16.70;;
79365;SDS011;68833;53.160;17.920;2023-11-19T08:22:11;25.80;;;13.20;;
79365;SDS011;68833;53.160;17.920;2023-11-19T08:24:38;28.70;;;15.10;;
79365;SDS011;68833;53.160;17.920;2023-11-19T08:27:04;23.40;;;14.50;;
79365;SDS011;68833;53.160;17.920;2023-11-19T08:29:30;33.40;;;19.90;;
79365;SDS011;68833;53.160;17.920;2023-11-19T08:31:57;30.70;;;16.40;;
79365;SDS011;68833;53.160;17.920;2023-11-19T08:34:23;31.00;;;20.50;;
79365;SDS011;68833;53.160;17.920;2023-11-19T08:36:50;29.20;;;20.60;;
79365;SDS011;68833;53.160;17.920;2023-11-19T08:39:19;24.30;;;16.80;;
79365;SDS011;68833;53.160;17.920;2023-11-19T08:41:47;25.10;;;14.30;;
79365;SDS011;68833;53.160;17.920;2023-11-19T08:44:14;19.50;;;11.50;;
79365;SDS011;68833;53.160;17.920;2023-11-19T08:46:49;22.00;;;12.10;;
79365;SDS011;68833;53.160;17.920;2023-11-19T08:49:15;27.10;;;14.80;;
79365;SDS011;68833;53.160;17.920;2023-11-19T08:51:42;26.20;;;15.00;;
79365;SDS011;68833;53.160;17.920;2023-11-19T08:54:08;25.80;;;14.80;;
79365;SDS011;68833;53.160;17.920;2023-11-19T08:56:34;18.70;;;12.50;;
79365;SDS011;68833;53.160;17.920;2023-11-19T08:59:01;16.60;;;10.10;;
79365;SDS011;68833;53.160;17.920;2023-11-19T09:01:28;22.30;;;10.70;;
79365;SDS011;68833;53.160;17.920;2023-11-19T09:03:55;16.60;;;9.70;;
79365;SDS011;68833;53.160;17.920;2023-11-19T09:06:23;25.00;;;12.20;;
79365;SDS011;68833;53.160;17.920;2023-11-19T09:08:49;30.00;;;15.50;;
79365;SDS011;68833;53.160;17.920;2023-11-19T09:11:15;23.60;;;13.50;;
79365;SDS011;68833;53.160;17.920;2023-11-19T09:13:42;23.90;;;13.10;;
79365;SDS011;68833;53.160;17.920;2023-11-19T09:16:14;18.10;;;11.80;;
79365;SDS011;68833;53.160;17.920;2023-11-19T09:18:41;14.70;;;7.80;;
79365;SDS011;68833;53.160;17.920;2023-11-19T09:21:07;23.30;;;12.60;;
79365;SDS011;68833;53.160;17.920;2023-11-19T09:23:34;20.30;;;11.80;;
79365;SDS011;68833;53.160;17.920;2023-11-19T09:26:05;28.50;;;16.10;;
79365;SDS011;68833;53.160;17.920;2023-11-19T09:28:32;27.80;;;16.20;;
79365;SDS011;68833;53.160;17.920;2023-11-19T09:30:58;26.50;;;15.10;;
79365;SDS011;68833;53.160;17.920;2023-11-19T09:33:25;32.40;;;18.80;;
79365;SDS011;68833;53.160;17.920;2023-11-19T09:35:52;21.70;;;13.50;;
79365;SDS011;68833;53.160;17.920;2023-11-19T09:38:19;15.60;;;9.20;;
79365;SDS011;68833;53.160;17.920;2023-11-19T09:40:45;18.70;;;11.00;;
79365;SDS011;68833;53.160;17.920;2023-11-19T09:43:11;18.20;;;10.60;;
79365;SDS011;68833;53.160;17.920;2023-11-19T09:45:58;30.40;;;16.60;;
79365;SDS011;68833;53.160;17.920;2023-11-19T09:48:27;28.30;;;15.80;;
79365;SDS011;68833;53.160;17.920;2023-11-19T09:50:53;28.10;;;16.10;;
79365;SDS011;68833;53.160;17.920;2023-11-19T09:53:20;18.40;;;9.90;;
79365;SDS011;68833;53.160;17.920;2023-11-19T09:55:47;27.20;;;16.00;;
79365;SDS011;68833;53.160;17.920;2023-11-19T09:58:13;18.30;;;10.60;;
79365;SDS011;68833;53.160;17.920;2023-11-19T10:00:41;25.80;;;13.40;;
79365;SDS011;68833;53.160;17.920;2023-11-19T10:03:07;32.80;;;17.40;;
79365;SDS011;68833;53.160;17.920;2023-11-19T10:05:36;32.50;;;17.70;;
79365;SDS011;68833;53.160;17.920;2023-11-19T10:08:05;28.30;;;16.00;;
79365;SDS011;68833;53.160;17.920;2023-11-19T10:10:31;25.40;;;14.90;;
79365;SDS011;68833;53.160;17.920;2023-11-19T10:12:58;29.10;;;16.10;;
79365;SDS011;68833;53.160;17.920;2023-11-19T10:15:27;31.90;;;16.30;;
79365;SDS011;68833;53.160;17.920;2023-11-19T10:17:56;17.50;;;10.70;;
79365;SDS011;68833;53.160;17.920;2023-11-19T10:20:23;27.40;;;14.70;;
79365;SDS011;68833;53.160;17.920;2023-11-19T10:22:53;21.20;;;11.80;;
79365;SDS011;68833;53.160;17.920;2023-11-19T10:25:24;31.40;;;17.40;;
79365;SDS011;68833;53.160;17.920;2023-11-19T10:30:24;32.40;;;16.20;;
79365;SDS011;68833;53.160;17.920;2023-11-19T10:33:05;29.80;;;16.20;;
79365;SDS011;68833;53.160;17.920;2023-11-19T10:35:58;20.00;;;11.40;;
79365;SDS011;68833;53.160;17.920;2023-11-19T10:38:25;24.40;;;13.80;;
79365;SDS011;68833;53.160;17.920;2023-11-19T10:40:52;20.50;;;11.40;;
79365;SDS011;68833;53.160;17.920;2023-11-19T10:43:21;45.10;;;23.60;;
79365;SDS011;68833;53.160;17.920;2023-11-19T10:45:51;32.30;;;17.40;;
79365;SDS011;68833;53.160;17.920;2023-11-19T10:48:18;25.70;;;13.50;;
79365;SDS011;68833;53.160;17.920;2023-11-19T10:50:46;22.20;;;11.60;;
79365;SDS011;68833;53.160;17.920;2023-11-19T10:53:15;25.50;;;14.70;;
79365;SDS011;68833;53.160;17.920;2023-11-19T10:55:46;26.20;;;15.90;;
79365;SDS011;68833;53.160;17.920;2023-11-19T10:58:15;45.70;;;20.20;;
79365;SDS011;68833;53.160;17.920;2023-11-19T11:03:39;126.10;;;52.40;;
79365;SDS011;68833;53.160;17.920;2023-11-19T11:06:08;46.70;;;23.60;;
79365;SDS011;68833;53.160;17.920;2023-11-19T11:08:37;41.60;;;20.00;;
79365;SDS011;68833;53.160;17.920;2023-11-19T11:11:05;38.70;;;20.80;;
79365;SDS011;68833;53.160;17.920;2023-11-19T11:13:34;37.20;;;21.00;;
79365;SDS011;68833;53.160;17.920;2023-11-19T11:16:03;37.20;;;20.20;;
79365;SDS011;68833;53.160;17.920;2023-11-19T11:18:34;38.20;;;19.10;;
79365;SDS011;68833;53.160;17.920;2023-11-19T11:21:11;43.00;;;23.40;;
79365;SDS011;68833;53.160;17.920;2023-11-19T11:29:41;42.10;;;22.90;;
79365;SDS011;68833;53.160;17.920;2023-11-19T11:32:37;32.00;;;18.30;;
79365;SDS011;68833;53.160;17.920;2023-11-19T11:35:23;37.50;;;19.10;;
79365;SDS011;68833;53.160;17.920;2023-11-19T11:38:06;33.10;;;18.40;;
79365;SDS011;68833;53.160;17.920;2023-11-19T11:40:34;43.50;;;21.90;;
79365;SDS011;68833;53.160;17.920;2023-11-19T11:43:02;40.30;;;22.10;;
79365;SDS011;68833;53.160;17.920;2023-11-19T11:45:38;40.10;;;21.60;;
79365;SDS011;68833;53.160;17.920;2023-11-19T11:48:10;39.70;;;21.20;;
79365;SDS011;68833;53.160;17.920;2023-11-19T11:53:35;32.50;;;16.70;;
79365;SDS011;68833;53.160;17.920;2023-11-19T11:56:02;38.60;;;20.10;;
79365;SDS011;68833;53.160;17.920;2023-11-19T11:58:30;30.70;;;17.90;;
79365;SDS011;68833;53.160;17.920;2023-11-19T12:01:00;40.40;;;20.80;;
79365;SDS011;68833;53.160;17.920;2023-11-19T12:03:29;45.60;;;23.90;;
79365;SDS011;68833;53.160;17.920;2023-11-19T12:05:57;42.70;;;24.50;;
79365;SDS011;68833;53.160;17.920;2023-11-19T12:08:26;37.50;;;21.30;;
79365;SDS011;68833;53.160;17.920;2023-11-19T12:10:55;39.30;;;21.10;;
79365;SDS011;68833;53.160;17.920;2023-11-19T12:13:42;31.80;;;17.80;;
79365;SDS011;68833;53.160;17.920;2023-11-19T12:16:13;22.30;;;12.90;;
79365;SDS011;68833;53.160;17.920;2023-11-19T12:18:40;27.50;;;15.20;;
79365;SDS011;68833;53.160;17.920;2023-11-19T12:21:08;33.10;;;18.00;;
79365;SDS011;68833;53.160;17.920;2023-11-19T12:23:43;42.30;;;22.60;;
79365;SDS011;68833;53.160;17.920;2023-11-19T12:28:59;31.70;;;17.50;;
79365;SDS011;68833;53.160;17.920;2023-11-19T12:31:27;35.20;;;18.10;;
79365;SDS011;68833;53.160;17.920;2023-11-19T12:33:54;25.60;;;13.40;;
79365;SDS011;68833;53.160;17.920;2023-11-19T12:36:21;35.00;;;19.30;;
79365;SDS011;68833;53.160;17.920;2023-11-19T12:38:49;45.40;;;23.80;;
79365;SDS011;68833;53.160;17.920;2023-11-19T12:41:17;49.80;;;27.60;;
79365;SDS011;68833;53.160;17.920;2023-11-19T12:43:47;41.80;;;21.80;;
79365;SDS011;68833;53.160;17.920;2023-11-19T12:46:17;36.60;;;23.30;;
79365;SDS011;68833;53.160;17.920;2023-11-19T12:48:48;34.50;;;19.20;;
79365;SDS011;68833;53.160;17.920;2023-11-19T12:51:15;35.60;;;19.50;;
79365;SDS011;68833;53.160;17.920;2023-11-19T12:53:47;27.50;;;14.50;;
79365;SDS011;68833;53.160;17.920;2023-11-19T12:56:21;27.20;;;13.90;;
79365;SDS011;68833;53.160;17.920;2023-11-19T12:58:48;43.80;;;20.70;;
79365;SDS011;68833;53.160;17.920;2023-11-19T13:01:19;39.40;;;21.10;;
79365;SDS011;68833;53.160;17.920;2023-11-19T13:03:47;37.90;;;19.20;;
79365;SDS011;68833;53.160;17.920;2023-11-19T13:06:15;37.20;;;18.20;;
79365;SDS011;68833;53.160;17.920;2023-11-19T13:08:44;35.10;;;17.80;;
79365;SDS011;68833;53.160;17.920;2023-11-19T13:11:13;25.90;;;15.90;;
79365;SDS011;68833;53.160;17.920;2023-11-19T13:13:59;23.00;;;12.40;;
79365;SDS011;68833;53.160;17.920;2023-11-19T13:16:27;24.50;;;13.60;;
79365;SDS011;68833;53.160;17.920;2023-11-19T13:18:54;39.70;;;20.40;;
79365;SDS011;68833;53.160;17.920;2023-11-19T13:21:21;33.60;;;18.30;;
79365;SDS011;68833;53.160;17.920;2023-11-19T13:23:48;35.90;;;19.40;;
79365;SDS011;68833;53.160;17.920;2023-11-19T13:26:16;31.80;;;18.00;;
79365;SDS011;68833;53.160;17.920;2023-11-19T13:28:43;37.10;;;18.80;;
79365;SDS011;68833;53.160;17.920;2023-11-19T13:31:10;28.90;;;16.40;;
79365;SDS011;68833;53.160;17.920;2023-11-19T13:33:37;31.00;;;17.20;;
79365;SDS011;68833;53.160;17.920;2023-11-19T13:36:04;27.70;;;14.90;;
79365;SDS011;68833;53.160;17.920;2023-11-19T13:38:35;39.00;;;20.90;;
79365;SDS011;68833;53.160;17.920;2023-11-19T13:41:02;39.30;;;20.80;;
79365;SDS011;68833;53.160;17.920;2023-11-19T13:43:31;55.10;;;25.80;;
79365;SDS011;68833;53.160;17.920;2023-11-19T13:45:58;75.80;;;34.90;;
79365;SDS011;68833;53.160;17.920;2023-11-19T13:48:25;67.20;;;31.20;;
79365;SDS011;68833;53.160;17.920;2023-11-19T13:50:53;119.40;;;59.50;;
79365;SDS011;68833;53.160;17.920;2023-11-19T13:53:21;124.00;;;55.50;;
79365;SDS011;68833;53.160;17.920;2023-11-19T13:55:50;55.00;;;30.30;;
79365;SDS011;68833;53.160;17.920;2023-11-19T13:58:17;34.50;;;21.90;;
79365;SDS011;68833;53.160;17.920;2023-11-19T14:00:44;29.30;;;16.90;;
79365;SDS011;68833;53.160;17.920;2023-11-19T14:03:11;35.60;;;20.50;;
79365;SDS011;68833;53.160;17.920;2023-11-19T14:05:38;36.40;;;21.90;;
79365;SDS011;68833;53.160;17.920;2023-11-19T14:08:07;36.10;;;18.60;;
79365;SDS011;68833;53.160;17.920;2023-11-19T14:10:38;25.30;;;13.60;;
79365;SDS011;68833;53.160;17.920;2023-11-19T14:13:08;34.40;;;19.90;;
79365;SDS011;68833;53.160;17.920;2023-11-19T14:15:35;32.20;;;18.60;;
79365;SDS011;68833;53.160;17.920;2023-11-19T14:18:02;38.70;;;22.60;;
79365;SDS011;68833;53.160;17.920;2023-11-19T14:20:29;42.90;;;25.60;;
79365;SDS011;68833;53.160;17.920;2023-11-19T14:22:56;32.50;;;19.00;;
79365;SDS011;68833;53.160;17.920;2023-11-19T14:25:24;28.40;;;16.40;;
79365;SDS011;68833;53.160;17.920;2023-11-19T14:27:51;24.50;;;15.00;;
79365;SDS011;68833;53.160;17.920;2023-11-19T14:30:18;27.20;;;15.80;;
79365;SDS011;68833;53.160;17.920;2023-11-19T14:32:45;37.50;;;22.00;;
79365;SDS011;68833;53.160;17.920;2023-11-19T14:35:13;35.90;;;20.80;;
79365;SDS011;68833;53.160;17.920;2023-11-19T14:37:40;32.60;;;18.30;;